createdAt,value
2023-03-26T00:00:15.439Z,6.80
2023-03-26T00:02:48.216Z,6.30
2023-03-26T00:05:22.114Z,5.40
2023-03-26T00:07:54.946Z,5.60
2023-03-26T00:10:27.894Z,8.80
2023-03-26T00:13:00.358Z,5.30
2023-03-26T00:15:34.458Z,5.50
2023-03-26T00:18:09.743Z,6.60
2023-03-26T00:20:42.704Z,8.00
2023-03-26T00:23:15.891Z,6.40
2023-03-26T00:25:51.329Z,9.70
2023-03-26T00:28:24.392Z,8.90
2023-03-26T00:31:19.094Z,6.50
2023-03-26T00:33:54.687Z,7.10
2023-03-26T00:36:28.830Z,10.10
2023-03-26T00:39:01.641Z,7.90
2023-03-26T00:41:37.502Z,8.60
2023-03-26T00:44:10.421Z,9.20
2023-03-26T00:46:43.568Z,5.70
2023-03-26T00:49:18.099Z,9.60
2023-03-26T00:51:50.804Z,9.40
2023-03-26T00:54:23.377Z,8.00
2023-03-26T00:56:56.586Z,10.60
2023-03-26T00:59:32.360Z,9.00
2023-03-26T01:02:06.130Z,9.80
2023-03-26T01:04:43.059Z,10.10
2023-03-26T01:07:22.382Z,9.20
2023-03-26T01:09:55.799Z,10.40
2023-03-26T01:12:33.658Z,9.20
2023-03-26T01:15:08.654Z,8.40
2023-03-26T01:17:43.472Z,8.30
2023-03-26T01:20:27.107Z,9.80
2023-03-26T01:23:05.739Z,8.20
2023-03-26T01:25:47.297Z,9.00
2023-03-26T01:28:22.208Z,10.10
2023-03-26T01:31:10.350Z,7.40
2023-03-26T01:34:06.067Z,8.00
2023-03-26T01:36:47.126Z,9.10
2023-03-26T01:39:32.148Z,7.40
2023-03-26T01:42:09.567Z,6.60
2023-03-26T01:44:49.307Z,6.80
2023-03-26T01:47:22.838Z,6.20
2023-03-26T01:49:56.194Z,6.80
2023-03-26T01:52:29.291Z,5.10
2023-03-26T01:55:03.478Z,4.20
2023-03-26T01:57:46.219Z,4.40
2023-03-26T02:00:29.696Z,4.30
2023-03-26T02:03:23.100Z,6.20
2023-03-26T02:06:01.126Z,5.20
2023-03-26T02:08:59.990Z,5.00
2023-03-26T02:11:35.959Z,4.10
2023-03-26T02:14:11.085Z,5.60
2023-03-26T02:16:47.259Z,5.60
2023-03-26T02:19:22.201Z,5.40
2023-03-26T02:22:00.090Z,4.70
2023-03-26T02:24:33.773Z,5.30
2023-03-26T02:27:08.086Z,6.30
2023-03-26T02:29:43.094Z,4.20
2023-03-26T02:32:16.083Z,7.30
2023-03-26T02:34:48.732Z,4.80
2023-03-26T02:37:21.562Z,4.10
2023-03-26T02:39:56.834Z,5.60
2023-03-26T02:42:34.643Z,4.40
2023-03-26T02:45:08.773Z,5.00
2023-03-26T02:48:04.261Z,5.30
2023-03-26T02:50:57.233Z,7.70
2023-03-26T02:53:47.861Z,5.60
2023-03-26T02:56:58.857Z,6.00
2023-03-26T02:59:53.111Z,5.90
2023-03-26T03:02:48.537Z,5.90
2023-03-26T03:05:38.667Z,4.20
2023-03-26T03:08:32.183Z,6.00
2023-03-26T03:11:30.131Z,4.50
2023-03-26T03:14:02.759Z,5.20
2023-03-26T03:16:36.772Z,5.20
2023-03-26T03:19:14.155Z,5.00
2023-03-26T03:21:46.854Z,2.90
2023-03-26T03:24:20.906Z,4.50
2023-03-26T03:26:57.114Z,4.70
2023-03-26T03:29:41.750Z,6.20
2023-03-26T03:32:52.988Z,4.30
2023-03-26T03:35:27.989Z,5.90
2023-03-26T03:38:03.180Z,4.60
2023-03-26T03:40:40.815Z,6.20
2023-03-26T03:43:13.668Z,5.80
2023-03-26T03:45:56.946Z,5.70
2023-03-26T03:49:01.152Z,6.90
2023-03-26T03:51:38.068Z,5.80
2023-03-26T03:54:18.888Z,5.10
2023-03-26T03:56:51.778Z,6.20
2023-03-26T03:59:47.361Z,5.50
2023-03-26T04:02:26.724Z,5.70
2023-03-26T04:05:02.923Z,5.30
2023-03-26T04:07:35.735Z,6.00
2023-03-26T04:10:14.784Z,4.40
2023-03-26T04:13:06.089Z,5.00
2023-03-26T04:16:12.283Z,6.70
2023-03-26T04:18:46.213Z,5.50
2023-03-26T04:21:20.444Z,6.60
2023-03-26T04:23:56.051Z,5.20
2023-03-26T04:26:50.375Z,6.00
2023-03-26T04:29:28.292Z,5.80
2023-03-26T04:32:07.507Z,7.10
2023-03-26T04:34:40.195Z,6.80
2023-03-26T04:37:23.417Z,5.70
2023-03-26T04:40:09.830Z,8.50
2023-03-26T04:42:58.697Z,6.70
2023-03-26T04:45:52.667Z,8.90
2023-03-26T04:48:26.145Z,6.40
2023-03-26T04:50:59.571Z,8.90
2023-03-26T04:53:32.422Z,6.10
2023-03-26T04:56:31.030Z,4.60
2023-03-26T04:59:35.335Z,7.70
2023-03-26T05:02:13.319Z,6.50
2023-03-26T05:04:57.505Z,13.50
2023-03-26T05:07:33.524Z,10.40
2023-03-26T05:12:41.273Z,9.70
2023-03-26T05:15:19.592Z,8.00
2023-03-26T05:18:14.418Z,7.30
2023-03-26T05:20:49.306Z,6.30
2023-03-26T05:23:22.135Z,6.10
2023-03-26T05:26:15.131Z,3.90
2023-03-26T05:28:47.947Z,6.80
2023-03-26T05:31:31.822Z,5.40
2023-03-26T05:34:07.118Z,3.90
2023-03-26T05:36:40.173Z,4.50
2023-03-26T05:39:41.915Z,4.80
2023-03-26T05:42:23.198Z,3.60
2023-03-26T05:45:12.087Z,6.40
2023-03-26T05:47:45.093Z,4.60
2023-03-26T05:50:18.150Z,6.50
2023-03-26T05:52:50.973Z,4.40
2023-03-26T05:55:42.777Z,5.90
2023-03-26T05:58:42.494Z,5.00
2023-03-26T06:01:39.200Z,6.70
2023-03-26T06:07:18.467Z,9.90
2023-03-26T06:09:59.178Z,7.40
2023-03-26T06:12:31.786Z,10.50
2023-03-26T06:15:06.504Z,6.90
2023-03-26T06:18:05.640Z,8.60
2023-03-26T06:20:54.271Z,4.90
2023-03-26T06:23:35.203Z,6.00
2023-03-26T06:26:15.749Z,7.90
2023-03-26T06:29:05.506Z,7.40
2023-03-26T06:31:46.299Z,8.40
2023-03-26T06:34:25.165Z,8.00
2023-03-26T06:36:57.913Z,9.00
2023-03-26T06:39:30.809Z,7.30
2023-03-26T06:43:06.873Z,5.90
2023-03-26T06:45:55.520Z,6.50
2023-03-26T06:48:43.686Z,5.60
2023-03-26T06:51:27.308Z,4.70
2023-03-26T06:54:15.106Z,5.00
2023-03-26T06:57:00.320Z,4.40
2023-03-26T06:59:51.716Z,5.60
2023-03-26T07:02:53.680Z,6.10
2023-03-26T07:05:45.907Z,5.50
2023-03-26T07:08:55.819Z,5.20
2023-03-26T07:11:39.298Z,5.70
2023-03-26T07:14:33.071Z,7.60
2023-03-26T07:17:34.957Z,7.60
2023-03-26T07:20:19.706Z,4.50
2023-03-26T07:22:54.968Z,8.60
2023-03-26T07:25:44.928Z,5.40
2023-03-26T07:28:32.276Z,7.90
2023-03-26T07:31:18.420Z,4.30
2023-03-26T07:34:04.396Z,5.70
2023-03-26T07:37:05.362Z,5.80
2023-03-26T07:40:13.693Z,3.30
2023-03-26T07:43:17.936Z,5.50
2023-03-26T07:46:00.336Z,5.20
2023-03-26T07:48:55.365Z,4.80
2023-03-26T07:51:47.165Z,5.10
2023-03-26T07:54:30.526Z,4.00
2023-03-26T07:57:31.162Z,4.80
2023-03-26T08:00:32.477Z,5.20
2023-03-26T08:03:34.616Z,4.40
2023-03-26T08:06:28.666Z,3.70
2023-03-26T08:09:21.164Z,4.00
2023-03-26T08:12:31.765Z,2.90
2023-03-26T08:15:12.678Z,3.60
2023-03-26T08:17:50.954Z,3.80
2023-03-26T08:20:34.583Z,2.30
2023-03-26T08:23:15.893Z,5.90
2023-03-26T08:26:02.742Z,3.30
2023-03-26T08:28:49.654Z,5.20
2023-03-26T08:31:33.238Z,3.90
2023-03-26T08:34:06.617Z,3.30
2023-03-26T08:39:10.585Z,2.60
2023-03-26T08:42:14.133Z,3.40
2023-03-26T08:45:23.262Z,3.50
2023-03-26T08:48:17.960Z,4.90
2023-03-26T08:51:29.034Z,4.10
2023-03-26T08:54:35.623Z,4.30
2023-03-26T08:57:41.873Z,3.80
2023-03-26T09:01:08.903Z,7.00
2023-03-26T09:04:12.877Z,6.90
2023-03-26T09:07:14.591Z,6.30
2023-03-26T09:10:18.816Z,3.00
2023-03-26T09:13:38.859Z,7.00
2023-03-26T09:16:40.791Z,4.80
2023-03-26T09:19:49.168Z,4.10
2023-03-26T09:22:52.617Z,11.20
2023-03-26T09:25:58.487Z,4.40
2023-03-26T09:32:32.000Z,3.30
2023-03-26T09:35:41.844Z,3.50
2023-03-26T09:38:30.518Z,3.90
2023-03-26T09:41:11.407Z,3.90
2023-03-26T09:44:17.674Z,6.20
2023-03-26T09:47:03.541Z,5.20
2023-03-26T09:49:47.261Z,3.90
2023-03-26T09:52:50.785Z,2.40
2023-03-26T09:55:57.795Z,2.20
2023-03-26T09:58:59.361Z,5.50
2023-03-26T10:01:55.590Z,4.80
2023-03-26T10:04:53.880Z,4.50
2023-03-26T10:21:25.621Z,3.30
2023-03-26T10:24:23.258Z,3.10
2023-03-26T10:27:26.789Z,7.90
2023-03-26T10:30:30.068Z,3.50
2023-03-26T10:33:15.945Z,3.90
2023-03-26T10:36:02.072Z,4.90
2023-03-26T10:38:52.379Z,2.90
2023-03-26T10:41:37.427Z,3.80
2023-03-26T10:44:35.562Z,3.80
2023-03-26T10:47:36.791Z,3.40
2023-03-26T10:50:34.335Z,4.30
2023-03-26T10:53:15.181Z,6.10
2023-03-26T10:55:54.063Z,4.90
2023-03-26T10:58:29.685Z,6.30
2023-03-26T11:01:34.685Z,5.90
2023-03-26T11:04:35.416Z,5.30
2023-03-26T11:07:19.925Z,5.00
2023-03-26T11:10:02.997Z,5.60
2023-03-26T11:12:43.379Z,3.90
2023-03-26T11:15:26.535Z,4.00
2023-03-26T11:18:10.655Z,3.90
2023-03-26T11:20:49.150Z,2.80
2023-03-26T11:23:36.073Z,3.70
2023-03-26T11:26:17.446Z,4.00
2023-03-26T11:29:32.271Z,4.10
2023-03-26T11:32:11.913Z,3.60
2023-03-26T11:34:50.752Z,2.60
2023-03-26T11:37:31.075Z,4.70
2023-03-26T11:40:12.189Z,5.00
2023-03-26T11:42:46.657Z,3.60
2023-03-26T11:45:24.571Z,4.00
2023-03-26T11:48:05.368Z,3.00
2023-03-26T11:50:42.443Z,3.70
2023-03-26T11:53:21.775Z,2.90
2023-03-26T11:56:01.511Z,2.50
2023-03-26T11:58:40.758Z,3.00
2023-03-26T12:01:19.675Z,2.60
2023-03-26T12:04:05.667Z,2.60
2023-03-26T12:06:38.853Z,3.80
2023-03-26T12:09:20.950Z,3.00
2023-03-26T12:12:01.973Z,3.70
2023-03-26T12:14:38.042Z,4.20
2023-03-26T12:17:15.029Z,3.00
2023-03-26T12:19:50.782Z,3.90
2023-03-26T12:22:37.778Z,4.50
2023-03-26T12:25:23.189Z,3.60
2023-03-26T12:28:03.542Z,3.20
2023-03-26T12:30:37.827Z,3.10
2023-03-26T12:33:18.653Z,4.10
2023-03-26T12:35:52.665Z,3.70
2023-03-26T12:38:33.820Z,4.30
2023-03-26T12:43:40.325Z,8.10
2023-03-26T12:44:52.753Z,2.80
2023-03-26T12:47:59.993Z,3.40
2023-03-26T12:50:18.840Z,4.00
2023-03-26T12:53:39.960Z,3.90
2023-03-26T12:56:22.376Z,4.70
2023-03-26T12:59:15.153Z,3.30
2023-03-26T13:01:57.481Z,3.80
2023-03-26T13:05:02.260Z,4.00
2023-03-26T13:07:51.601Z,3.30
2023-03-26T13:10:38.776Z,5.20
2023-03-26T13:13:38.272Z,3.90
2023-03-26T13:16:15.777Z,2.40
2023-03-26T13:18:55.155Z,4.80
2023-03-26T13:21:40.558Z,4.10
2023-03-26T13:24:20.066Z,5.10
2023-03-26T13:27:07.437Z,3.60
2023-03-26T13:29:56.929Z,6.10
2023-03-26T13:32:41.612Z,5.30
2023-03-26T13:35:26.118Z,3.60
2023-03-26T13:38:07.079Z,3.80
2023-03-26T13:40:51.449Z,5.20
2023-03-26T13:43:55.258Z,4.40
2023-03-26T13:46:36.857Z,5.30
2023-03-26T13:49:16.003Z,3.80
2023-03-26T13:51:55.702Z,3.80
2023-03-26T13:54:34.434Z,4.70
2023-03-26T13:57:14.429Z,4.30
2023-03-26T13:59:52.567Z,3.90
2023-03-26T14:02:32.506Z,3.60
2023-03-26T14:05:09.752Z,3.70
2023-03-26T14:07:48.358Z,3.90
2023-03-26T14:10:25.547Z,2.70
2023-03-26T14:13:04.654Z,3.20
2023-03-26T14:15:43.369Z,4.00
2023-03-26T14:18:31.355Z,2.80
2023-03-26T14:21:34.606Z,4.40
2023-03-26T14:24:46.175Z,4.30
2023-03-26T14:27:34.446Z,4.20
2023-03-26T14:30:36.910Z,3.50
2023-03-26T14:33:28.225Z,5.10
2023-03-26T14:36:13.954Z,3.80
2023-03-26T14:39:12.729Z,4.80
2023-03-26T14:41:52.555Z,3.50
2023-03-26T14:45:08.688Z,2.80
2023-03-26T14:47:48.184Z,3.30
2023-03-26T14:50:46.993Z,3.50
2023-03-26T14:53:28.011Z,3.80
2023-03-26T14:56:23.715Z,3.90
2023-03-26T14:59:34.361Z,4.60
2023-03-26T15:02:54.175Z,3.70
2023-03-26T15:05:58.065Z,4.50
2023-03-26T15:09:09.531Z,3.50
2023-03-26T15:11:55.342Z,3.20
2023-03-26T15:15:18.107Z,3.30
2023-03-26T15:18:27.869Z,4.10
2023-03-26T15:21:30.292Z,4.30
2023-03-26T15:24:34.767Z,3.50
2023-03-26T15:27:58.570Z,3.00
2023-03-26T15:31:02.098Z,5.60
2023-03-26T15:34:03.355Z,3.40
2023-03-26T15:37:29.466Z,3.20
2023-03-26T15:40:50.935Z,2.90
2023-03-26T15:43:35.075Z,5.10
2023-03-26T15:46:34.411Z,2.10
2023-03-26T15:49:18.885Z,4.00
2023-03-26T15:52:07.329Z,4.30
2023-03-26T15:54:59.480Z,4.70
2023-03-26T15:57:44.339Z,4.00
2023-03-26T16:00:29.451Z,4.30
2023-03-26T16:03:28.384Z,17.50
2023-03-26T16:06:24.278Z,4.70
2023-03-26T16:09:15.886Z,4.10
2023-03-26T16:11:58.761Z,5.00
2023-03-26T16:14:53.882Z,6.30
2023-03-26T16:17:28.931Z,5.70
2023-03-26T16:20:23.761Z,6.80
2023-03-26T16:23:04.780Z,6.00
2023-03-26T16:26:00.524Z,6.50
2023-03-26T16:28:37.751Z,13.70
2023-03-26T16:31:39.461Z,8.80
2023-03-26T16:34:41.883Z,14.20
2023-03-26T16:37:44.619Z,15.50
2023-03-26T16:40:38.494Z,9.10
2023-03-26T16:43:42.915Z,9.10
2023-03-26T16:46:28.511Z,8.20
2023-03-26T16:49:09.767Z,8.80
2023-03-26T16:51:59.719Z,7.00
2023-03-26T16:54:43.912Z,10.00
2023-03-26T16:57:27.852Z,8.20
2023-03-26T17:00:24.692Z,8.90
2023-03-26T17:03:06.767Z,6.10
2023-03-26T17:05:45.443Z,6.40
2023-03-26T17:08:36.227Z,5.40
2023-03-26T17:11:21.030Z,4.00
2023-03-26T17:14:05.503Z,3.90
2023-03-26T17:16:44.945Z,3.70
2023-03-26T17:19:30.521Z,2.90
2023-03-26T17:22:07.937Z,4.30
2023-03-26T17:24:49.331Z,4.30
2023-03-26T17:27:53.880Z,23.70
2023-03-26T17:30:54.272Z,7.30
2023-03-26T17:33:35.116Z,16.50
2023-03-26T17:36:42.286Z,6.80
2023-03-26T17:40:13.369Z,4.90
2023-03-26T17:43:07.909Z,6.50
2023-03-26T17:45:45.504Z,5.20
2023-03-26T17:48:48.051Z,6.60
2023-03-26T17:51:42.018Z,4.70
2023-03-26T17:54:29.833Z,4.00
2023-03-26T17:57:10.195Z,2.70
2023-03-26T17:59:45.527Z,4.30
2023-03-26T18:02:25.223Z,4.00
2023-03-26T18:05:03.395Z,4.80
2023-03-26T18:08:11.456Z,4.70
2023-03-26T18:11:16.634Z,4.60
2023-03-26T18:14:40.126Z,8.20
2023-03-26T18:17:20.446Z,4.30
2023-03-26T18:20:06.988Z,5.20
2023-03-26T18:25:29.706Z,3.30
2023-03-26T18:28:17.689Z,3.40
2023-03-26T18:30:56.913Z,4.40
2023-03-26T18:33:48.518Z,5.60
2023-03-26T18:36:29.244Z,5.80
2023-03-26T18:39:06.226Z,8.20
2023-03-26T18:41:44.339Z,8.00
2023-03-26T18:44:22.116Z,7.80
2023-03-26T18:46:56.876Z,10.20
2023-03-26T18:49:31.046Z,12.90
2023-03-26T18:52:03.674Z,11.10
2023-03-26T18:54:38.596Z,9.90
2023-03-26T18:57:22.087Z,19.70
2023-03-26T18:59:57.015Z,8.80
2023-03-26T19:02:30.433Z,10.10
2023-03-26T19:07:38.472Z,8.10
2023-03-26T19:10:25.651Z,7.10
2023-03-26T19:13:03.352Z,7.00
2023-03-26T19:15:38.915Z,7.80
2023-03-26T19:18:18.390Z,23.10
2023-03-26T19:20:54.602Z,33.30
2023-03-26T19:23:32.740Z,21.50
2023-03-26T19:26:10.335Z,6.00
2023-03-26T19:28:49.424Z,7.50
2023-03-26T19:31:28.421Z,11.10
2023-03-26T19:34:03.444Z,11.30
2023-03-26T19:36:40.095Z,13.60
2023-03-26T19:39:27.294Z,14.80
2023-03-26T19:42:11.913Z,13.30
2023-03-26T19:44:48.255Z,5.40
2023-03-26T19:47:35.342Z,5.80
2023-03-26T19:50:26.622Z,129.20
2023-03-26T19:53:19.194Z,108.80
2023-03-26T19:55:59.612Z,25.20
2023-03-26T19:58:33.399Z,13.10
2023-03-26T20:03:42.164Z,8.40
2023-03-26T20:06:17.537Z,12.20
2023-03-26T20:08:51.922Z,9.00
2023-03-26T20:11:30.893Z,12.10
2023-03-26T20:14:09.227Z,7.30
2023-03-26T20:16:56.079Z,5.20
2023-03-26T20:19:33.054Z,7.00
2023-03-26T20:22:07.317Z,3.90
2023-03-26T20:24:41.822Z,5.70
2023-03-26T20:27:15.259Z,6.60
2023-03-26T20:29:48.268Z,4.30
2023-03-26T20:32:26.469Z,4.80
2023-03-26T20:34:59.991Z,5.30
2023-03-26T20:37:32.488Z,4.90
2023-03-26T20:40:08.393Z,7.40
2023-03-26T20:42:41.833Z,5.40
2023-03-26T20:47:52.416Z,6.30
2023-03-26T20:50:27.266Z,9.20
2023-03-26T20:53:01.120Z,7.00
2023-03-26T20:55:34.062Z,6.90
2023-03-26T20:58:06.467Z,7.20
2023-03-26T21:00:40.056Z,5.60
2023-03-26T21:05:48.914Z,6.90
2023-03-26T21:08:30.459Z,6.40
2023-03-26T21:11:07.231Z,7.70
2023-03-26T21:13:44.776Z,9.30
2023-03-26T21:16:19.322Z,6.00
2023-03-26T21:18:53.301Z,8.30
2023-03-26T21:21:46.580Z,10.20
2023-03-26T21:24:33.369Z,6.50
2023-03-26T21:27:14.452Z,8.00
2023-03-26T21:29:48.010Z,11.10
2023-03-26T21:32:21.821Z,8.40
2023-03-26T21:34:59.062Z,10.00
2023-03-26T21:37:33.572Z,9.20
2023-03-26T21:40:15.426Z,11.20
2023-03-26T21:42:50.616Z,11.60
2023-03-26T21:45:25.034Z,12.30
2023-03-26T21:47:58.802Z,13.90
2023-03-26T21:50:32.715Z,11.60
2023-03-26T21:53:06.384Z,15.00
2023-03-26T21:58:30.612Z,11.30
2023-03-26T22:01:18.235Z,14.00
2023-03-26T22:04:14.613Z,16.00
2023-03-26T22:06:52.624Z,18.20
2023-03-26T22:09:33.925Z,14.70
2023-03-26T22:12:10.804Z,15.50
2023-03-26T22:14:43.488Z,16.20
2023-03-26T22:17:16.150Z,15.30
2023-03-26T22:19:49.048Z,16.10
2023-03-26T22:22:22.516Z,15.50
2023-03-26T22:24:55.528Z,17.90
2023-03-26T22:27:28.411Z,17.60
2023-03-26T22:30:00.973Z,16.70
2023-03-26T22:32:35.279Z,18.10
2023-03-26T22:35:09.345Z,19.70
2023-03-26T22:37:41.979Z,16.30
2023-03-26T22:40:15.086Z,17.10
2023-03-26T22:42:50.458Z,17.50
2023-03-26T22:45:24.005Z,17.30
2023-03-26T22:48:03.086Z,17.20
2023-03-26T22:50:37.226Z,14.90
2023-03-26T22:53:09.664Z,16.10
2023-03-26T22:55:42.466Z,19.60
2023-03-26T22:58:15.275Z,15.90
2023-03-26T23:00:50.605Z,16.00
2023-03-26T23:03:34.866Z,16.20
2023-03-26T23:06:10.825Z,14.30
2023-03-26T23:08:44.085Z,16.10
2023-03-26T23:11:19.309Z,16.70
2023-03-26T23:13:52.526Z,13.40
2023-03-26T23:16:25.390Z,13.30
2023-03-26T23:18:58.264Z,18.60
2023-03-26T23:21:30.786Z,14.90
2023-03-26T23:24:11.217Z,15.10
2023-03-26T23:26:50.529Z,17.40
2023-03-26T23:29:24.016Z,12.30
2023-03-26T23:31:56.708Z,13.10
2023-03-26T23:34:29.400Z,10.50
2023-03-26T23:37:02.489Z,9.60
2023-03-26T23:39:35.208Z,8.70
2023-03-26T23:42:07.926Z,10.30
2023-03-26T23:44:40.787Z,12.40
2023-03-26T23:47:17.081Z,9.60
2023-03-26T23:49:49.685Z,14.80
2023-03-26T23:52:22.940Z,9.30
2023-03-26T23:54:55.578Z,11.40
2023-03-26T23:57:28.218Z,11.50
